sensor_id;sensor_type;location;lat;lon;timestamp;P1;durP1;ratioP1;P2;durP2;ratioP2
68523;SDS011;55524;51.380;13.372;2023-09-18T00:00:48;5.22;;;4.20;;
68523;SDS011;55524;51.380;13.372;2023-09-18T00:03:18;4.75;;;4.32;;
68523;SDS011;55524;51.380;13.372;2023-09-18T00:05:48;4.35;;;4.00;;
68523;SDS011;55524;51.380;13.372;2023-09-18T00:08:14;4.75;;;4.13;;
68523;SDS011;55524;51.380;13.372;2023-09-18T00:10:42;5.07;;;3.75;;
68523;SDS011;55524;51.380;13.372;2023-09-18T00:13:12;4.50;;;4.10;;
68523;SDS011;55524;51.380;13.372;2023-09-18T00:15:39;4.40;;;3.83;;
68523;SDS011;55524;51.380;13.372;2023-09-18T00:18:06;4.32;;;3.85;;
68523;SDS011;55524;51.380;13.372;2023-09-18T00:20:33;4.65;;;4.25;;
68523;SDS011;55524;51.380;13.372;2023-09-18T00:23:00;4.00;;;3.70;;
68523;SDS011;55524;51.380;13.372;2023-09-18T00:25:26;4.55;;;3.95;;
68523;SDS011;55524;51.380;13.372;2023-09-18T00:27:52;5.07;;;4.10;;
68523;SDS011;55524;51.380;13.372;2023-09-18T00:30:19;4.90;;;3.72;;
68523;SDS011;55524;51.380;13.372;2023-09-18T00:32:45;8.50;;;4.45;;
68523;SDS011;55524;51.380;13.372;2023-09-18T00:35:15;5.80;;;3.67;;
68523;SDS011;55524;51.380;13.372;2023-09-18T00:37:41;5.00;;;4.03;;
68523;SDS011;55524;51.380;13.372;2023-09-18T00:40:08;4.97;;;4.30;;
68523;SDS011;55524;51.380;13.372;2023-09-18T00:42:36;5.03;;;4.32;;
68523;SDS011;55524;51.380;13.372;2023-09-18T00:45:02;4.15;;;3.80;;
68523;SDS011;55524;51.380;13.372;2023-09-18T00:47:28;5.72;;;4.25;;
68523;SDS011;55524;51.380;13.372;2023-09-18T00:49:55;4.75;;;4.25;;
68523;SDS011;55524;51.380;13.372;2023-09-18T00:52:22;5.90;;;4.07;;
68523;SDS011;55524;51.380;13.372;2023-09-18T00:54:50;5.03;;;4.57;;
68523;SDS011;55524;51.380;13.372;2023-09-18T00:57:17;4.57;;;3.70;;
68523;SDS011;55524;51.380;13.372;2023-09-18T00:59:44;6.82;;;4.03;;
68523;SDS011;55524;51.380;13.372;2023-09-18T01:02:11;4.60;;;4.20;;
68523;SDS011;55524;51.380;13.372;2023-09-18T01:04:38;4.22;;;3.90;;
68523;SDS011;55524;51.380;13.372;2023-09-18T01:07:09;5.83;;;3.93;;
68523;SDS011;55524;51.380;13.372;2023-09-18T01:09:35;4.70;;;4.30;;
68523;SDS011;55524;51.380;13.372;2023-09-18T01:15:02;4.18;;;3.83;;
68523;SDS011;55524;51.380;13.372;2023-09-18T01:17:37;5.53;;;4.10;;
68523;SDS011;55524;51.380;13.372;2023-09-18T01:20:04;5.18;;;4.18;;
68523;SDS011;55524;51.380;13.372;2023-09-18T01:22:34;5.40;;;4.38;;
68523;SDS011;55524;51.380;13.372;2023-09-18T01:25:00;4.43;;;4.03;;
68523;SDS011;55524;51.380;13.372;2023-09-18T01:27:26;4.60;;;4.20;;
68523;SDS011;55524;51.380;13.372;2023-09-18T01:29:53;4.60;;;4.20;;
68523;SDS011;55524;51.380;13.372;2023-09-18T01:32:19;5.00;;;4.45;;
68523;SDS011;55524;51.380;13.372;2023-09-18T01:34:53;4.78;;;4.32;;
68523;SDS011;55524;51.380;13.372;2023-09-18T01:37:22;4.38;;;3.97;;
68523;SDS011;55524;51.380;13.372;2023-09-18T01:39:51;4.47;;;4.10;;
68523;SDS011;55524;51.380;13.372;2023-09-18T01:42:19;6.22;;;4.35;;
68523;SDS011;55524;51.380;13.372;2023-09-18T01:44:47;4.20;;;3.90;;
68523;SDS011;55524;51.380;13.372;2023-09-18T01:47:16;5.75;;;4.13;;
68523;SDS011;55524;51.380;13.372;2023-09-18T01:49:44;5.37;;;4.13;;
68523;SDS011;55524;51.380;13.372;2023-09-18T01:52:11;5.28;;;4.15;;
68523;SDS011;55524;51.380;13.372;2023-09-18T01:54:38;6.25;;;4.35;;
68523;SDS011;55524;51.380;13.372;2023-09-18T01:57:04;4.82;;;4.35;;
68523;SDS011;55524;51.380;13.372;2023-09-18T01:59:32;5.93;;;4.05;;
68523;SDS011;55524;51.380;13.372;2023-09-18T02:01:59;4.80;;;3.95;;
68523;SDS011;55524;51.380;13.372;2023-09-18T02:04:28;4.68;;;4.20;;
68523;SDS011;55524;51.380;13.372;2023-09-18T02:06:55;4.50;;;4.20;;
68523;SDS011;55524;51.380;13.372;2023-09-18T02:09:22;5.25;;;3.95;;
68523;SDS011;55524;51.380;13.372;2023-09-18T02:11:48;4.57;;;3.95;;
68523;SDS011;55524;51.380;13.372;2023-09-18T02:14:14;4.85;;;3.90;;
68523;SDS011;55524;51.380;13.372;2023-09-18T02:16:41;4.90;;;4.13;;
68523;SDS011;55524;51.380;13.372;2023-09-18T02:19:12;4.55;;;4.15;;
68523;SDS011;55524;51.380;13.372;2023-09-18T02:21:39;4.30;;;3.90;;
68523;SDS011;55524;51.380;13.372;2023-09-18T02:24:05;4.63;;;3.90;;
68523;SDS011;55524;51.380;13.372;2023-09-18T02:26:32;4.13;;;3.83;;
68523;SDS011;55524;51.380;13.372;2023-09-18T02:29:00;5.80;;;4.53;;
68523;SDS011;55524;51.380;13.372;2023-09-18T02:31:36;5.07;;;4.32;;
68523;SDS011;55524;51.380;13.372;2023-09-18T02:34:02;4.97;;;4.30;;
68523;SDS011;55524;51.380;13.372;2023-09-18T02:36:29;4.53;;;4.13;;
68523;SDS011;55524;51.380;13.372;2023-09-18T02:38:55;5.22;;;4.70;;
68523;SDS011;55524;51.380;13.372;2023-09-18T02:41:22;5.03;;;4.43;;
68523;SDS011;55524;51.380;13.372;2023-09-18T02:43:48;5.30;;;4.50;;
68523;SDS011;55524;51.380;13.372;2023-09-18T02:46:14;5.00;;;4.50;;
68523;SDS011;55524;51.380;13.372;2023-09-18T02:48:40;4.95;;;4.32;;
68523;SDS011;55524;51.380;13.372;2023-09-18T02:51:07;5.55;;;4.90;;
68523;SDS011;55524;51.380;13.372;2023-09-18T02:53:33;5.18;;;4.78;;
68523;SDS011;55524;51.380;13.372;2023-09-18T02:56:00;5.15;;;4.30;;
68523;SDS011;55524;51.380;13.372;2023-09-18T02:58:26;4.88;;;4.47;;
68523;SDS011;55524;51.380;13.372;2023-09-18T03:00:55;5.28;;;4.72;;
68523;SDS011;55524;51.380;13.372;2023-09-18T03:03:25;4.95;;;4.20;;
68523;SDS011;55524;51.380;13.372;2023-09-18T03:05:51;5.90;;;4.25;;
68523;SDS011;55524;51.380;13.372;2023-09-18T03:08:18;6.40;;;4.72;;
68523;SDS011;55524;51.380;13.372;2023-09-18T03:10:44;5.10;;;4.70;;
68523;SDS011;55524;51.380;13.372;2023-09-18T03:13:11;6.28;;;4.82;;
68523;SDS011;55524;51.380;13.372;2023-09-18T03:15:39;6.70;;;5.60;;
68523;SDS011;55524;51.380;13.372;2023-09-18T03:18:09;5.88;;;5.28;;
68523;SDS011;55524;51.380;13.372;2023-09-18T03:20:35;5.22;;;4.72;;
68523;SDS011;55524;51.380;13.372;2023-09-18T03:23:02;5.68;;;5.18;;
68523;SDS011;55524;51.380;13.372;2023-09-18T03:25:28;6.78;;;4.95;;
68523;SDS011;55524;51.380;13.372;2023-09-18T03:27:55;5.65;;;5.18;;
68523;SDS011;55524;51.380;13.372;2023-09-18T03:30:23;9.18;;;5.22;;
68523;SDS011;55524;51.380;13.372;2023-09-18T03:32:50;5.60;;;5.10;;
68523;SDS011;55524;51.380;13.372;2023-09-18T03:35:16;5.53;;;5.03;;
68523;SDS011;55524;51.380;13.372;2023-09-18T03:37:47;5.55;;;5.05;;
68523;SDS011;55524;51.380;13.372;2023-09-18T03:40:15;7.10;;;5.20;;
68523;SDS011;55524;51.380;13.372;2023-09-18T03:42:43;5.25;;;4.85;;
68523;SDS011;55524;51.380;13.372;2023-09-18T03:45:10;5.70;;;5.10;;
68523;SDS011;55524;51.380;13.372;2023-09-18T03:47:38;5.80;;;5.30;;
68523;SDS011;55524;51.380;13.372;2023-09-18T03:50:06;5.65;;;5.15;;
68523;SDS011;55524;51.380;13.372;2023-09-18T03:52:34;5.57;;;5.03;;
68523;SDS011;55524;51.380;13.372;2023-09-18T03:55:01;6.28;;;5.10;;
68523;SDS011;55524;51.380;13.372;2023-09-18T03:57:28;6.13;;;5.20;;
68523;SDS011;55524;51.380;13.372;2023-09-18T03:59:54;5.63;;;5.13;;
68523;SDS011;55524;51.380;13.372;2023-09-18T04:02:21;5.40;;;5.00;;
68523;SDS011;55524;51.380;13.372;2023-09-18T04:04:49;5.88;;;5.28;;
68523;SDS011;55524;51.380;13.372;2023-09-18T04:07:15;6.25;;;5.65;;
68523;SDS011;55524;51.380;13.372;2023-09-18T04:09:42;6.03;;;5.47;;
68523;SDS011;55524;51.380;13.372;2023-09-18T04:12:08;6.18;;;4.90;;
68523;SDS011;55524;51.380;13.372;2023-09-18T04:14:34;5.70;;;5.20;;
68523;SDS011;55524;51.380;13.372;2023-09-18T04:17:01;6.03;;;4.80;;
68523;SDS011;55524;51.380;13.372;2023-09-18T04:19:28;5.60;;;5.10;;
68523;SDS011;55524;51.380;13.372;2023-09-18T04:21:54;6.95;;;5.75;;
68523;SDS011;55524;51.380;13.372;2023-09-18T04:24:21;5.90;;;5.28;;
68523;SDS011;55524;51.380;13.372;2023-09-18T04:26:48;5.65;;;5.15;;
68523;SDS011;55524;51.380;13.372;2023-09-18T04:29:18;6.03;;;5.43;;
68523;SDS011;55524;51.380;13.372;2023-09-18T04:31:44;6.65;;;5.90;;
68523;SDS011;55524;51.380;13.372;2023-09-18T04:34:12;6.03;;;5.38;;
68523;SDS011;55524;51.380;13.372;2023-09-18T04:36:38;8.77;;;5.53;;
68523;SDS011;55524;51.380;13.372;2023-09-18T04:39:05;6.28;;;5.78;;
68523;SDS011;55524;51.380;13.372;2023-09-18T04:41:32;6.70;;;6.00;;
68523;SDS011;55524;51.380;13.372;2023-09-18T04:43:58;7.18;;;5.90;;
68523;SDS011;55524;51.380;13.372;2023-09-18T04:46:25;5.95;;;5.45;;
68523;SDS011;55524;51.380;13.372;2023-09-18T04:48:51;8.30;;;6.30;;
68523;SDS011;55524;51.380;13.372;2023-09-18T04:51:17;6.32;;;5.68;;
68523;SDS011;55524;51.380;13.372;2023-09-18T04:53:44;7.47;;;5.97;;
68523;SDS011;55524;51.380;13.372;2023-09-18T04:56:10;9.35;;;6.05;;
68523;SDS011;55524;51.380;13.372;2023-09-18T04:58:37;7.95;;;6.25;;
68523;SDS011;55524;51.380;13.372;2023-09-18T05:01:03;6.78;;;6.15;;
68523;SDS011;55524;51.380;13.372;2023-09-18T05:03:30;8.60;;;6.00;;
68523;SDS011;55524;51.380;13.372;2023-09-18T05:05:59;7.60;;;6.50;;
68523;SDS011;55524;51.380;13.372;2023-09-18T05:08:25;10.55;;;7.10;;
68523;SDS011;55524;51.380;13.372;2023-09-18T05:10:51;12.27;;;6.35;;
68523;SDS011;55524;51.380;13.372;2023-09-18T05:13:18;6.93;;;6.32;;
68523;SDS011;55524;51.380;13.372;2023-09-18T05:15:44;9.23;;;6.35;;
68523;SDS011;55524;51.380;13.372;2023-09-18T05:18:10;7.47;;;6.45;;
68523;SDS011;55524;51.380;13.372;2023-09-18T05:20:38;6.53;;;5.93;;
68523;SDS011;55524;51.380;13.372;2023-09-18T05:23:05;9.57;;;5.90;;
68523;SDS011;55524;51.380;13.372;2023-09-18T05:25:31;6.55;;;5.95;;
68523;SDS011;55524;51.380;13.372;2023-09-18T05:27:59;6.65;;;5.80;;
68523;SDS011;55524;51.380;13.372;2023-09-18T05:30:29;9.63;;;5.60;;
68523;SDS011;55524;51.380;13.372;2023-09-18T05:33:00;6.35;;;5.75;;
68523;SDS011;55524;51.380;13.372;2023-09-18T05:35:33;6.28;;;5.68;;
68523;SDS011;55524;51.380;13.372;2023-09-18T05:38:04;7.93;;;5.55;;
68523;SDS011;55524;51.380;13.372;2023-09-18T05:40:31;11.23;;;5.85;;
68523;SDS011;55524;51.380;13.372;2023-09-18T05:42:58;20.00;;;6.35;;
68523;SDS011;55524;51.380;13.372;2023-09-18T05:45:24;11.80;;;6.25;;
68523;SDS011;55524;51.380;13.372;2023-09-18T05:47:52;19.77;;;6.53;;
68523;SDS011;55524;51.380;13.372;2023-09-18T05:50:29;21.70;;;6.60;;
68523;SDS011;55524;51.380;13.372;2023-09-18T05:52:57;21.65;;;7.13;;
68523;SDS011;55524;51.380;13.372;2023-09-18T05:55:25;9.93;;;6.22;;
68523;SDS011;55524;51.380;13.372;2023-09-18T05:57:53;13.82;;;6.75;;
68523;SDS011;55524;51.380;13.372;2023-09-18T06:00:19;45.00;;;8.98;;
68523;SDS011;55524;51.380;13.372;2023-09-18T06:02:46;17.90;;;7.30;;
68523;SDS011;55524;51.380;13.372;2023-09-18T06:05:13;25.05;;;7.70;;
68523;SDS011;55524;51.380;13.372;2023-09-18T06:07:41;19.55;;;6.93;;
68523;SDS011;55524;51.380;13.372;2023-09-18T06:10:07;10.65;;;5.82;;
68523;SDS011;55524;51.380;13.372;2023-09-18T06:12:34;31.38;;;6.90;;
68523;SDS011;55524;51.380;13.372;2023-09-18T06:15:02;17.33;;;6.85;;
68523;SDS011;55524;51.380;13.372;2023-09-18T06:17:29;11.35;;;5.95;;
68523;SDS011;55524;51.380;13.372;2023-09-18T06:19:55;10.02;;;6.50;;
68523;SDS011;55524;51.380;13.372;2023-09-18T06:22:22;15.27;;;6.10;;
68523;SDS011;55524;51.380;13.372;2023-09-18T06:24:48;9.25;;;5.45;;
68523;SDS011;55524;51.380;13.372;2023-09-18T06:27:14;38.35;;;7.72;;
68523;SDS011;55524;51.380;13.372;2023-09-18T06:29:40;6.55;;;5.25;;
68523;SDS011;55524;51.380;13.372;2023-09-18T06:32:08;50.88;;;9.88;;
68523;SDS011;55524;51.380;13.372;2023-09-18T06:34:34;11.80;;;5.60;;
68523;SDS011;55524;51.380;13.372;2023-09-18T06:37:00;23.65;;;6.18;;
68523;SDS011;55524;51.380;13.372;2023-09-18T06:39:28;10.93;;;5.35;;
68523;SDS011;55524;51.380;13.372;2023-09-18T06:41:55;9.57;;;5.25;;
68523;SDS011;55524;51.380;13.372;2023-09-18T06:44:21;15.75;;;5.68;;
68523;SDS011;55524;51.380;13.372;2023-09-18T06:46:48;19.70;;;6.03;;
68523;SDS011;55524;51.380;13.372;2023-09-18T06:49:14;11.95;;;5.00;;
68523;SDS011;55524;51.380;13.372;2023-09-18T06:51:41;12.60;;;5.22;;
68523;SDS011;55524;51.380;13.372;2023-09-18T06:54:07;23.17;;;6.32;;
68523;SDS011;55524;51.380;13.372;2023-09-18T06:56:33;5.05;;;4.28;;
68523;SDS011;55524;51.380;13.372;2023-09-18T06:58:59;8.82;;;5.68;;
68523;SDS011;55524;51.380;13.372;2023-09-18T07:01:26;8.63;;;5.00;;
68523;SDS011;55524;51.380;13.372;2023-09-18T07:03:53;13.82;;;5.60;;
68523;SDS011;55524;51.380;13.372;2023-09-18T07:06:19;11.95;;;5.07;;
68523;SDS011;55524;51.380;13.372;2023-09-18T07:08:46;10.45;;;4.82;;
68523;SDS011;55524;51.380;13.372;2023-09-18T07:11:14;16.23;;;4.90;;
68523;SDS011;55524;51.380;13.372;2023-09-18T07:13:41;8.43;;;5.00;;
68523;SDS011;55524;51.380;13.372;2023-09-18T07:16:08;17.05;;;4.90;;
68523;SDS011;55524;51.380;13.372;2023-09-18T07:18:35;11.82;;;4.82;;
68523;SDS011;55524;51.380;13.372;2023-09-18T07:21:02;4.45;;;3.63;;
68523;SDS011;55524;51.380;13.372;2023-09-18T07:23:28;6.40;;;4.28;;
68523;SDS011;55524;51.380;13.372;2023-09-18T07:25:54;7.90;;;4.25;;
68523;SDS011;55524;51.380;13.372;2023-09-18T07:28:23;3.97;;;3.67;;
68523;SDS011;55524;51.380;13.372;2023-09-18T07:30:50;3.90;;;3.50;;
68523;SDS011;55524;51.380;13.372;2023-09-18T07:33:16;3.95;;;3.30;;
68523;SDS011;55524;51.380;13.372;2023-09-18T07:35:47;5.40;;;3.30;;
68523;SDS011;55524;51.380;13.372;2023-09-18T07:38:16;4.10;;;3.80;;
68523;SDS011;55524;51.380;13.372;2023-09-18T07:40:44;11.38;;;4.22;;
68523;SDS011;55524;51.380;13.372;2023-09-18T07:43:12;11.60;;;3.85;;
68523;SDS011;55524;51.380;13.372;2023-09-18T07:45:38;5.28;;;3.50;;
68523;SDS011;55524;51.380;13.372;2023-09-18T07:48:06;6.15;;;3.58;;
68523;SDS011;55524;51.380;13.372;2023-09-18T07:50:33;3.47;;;3.17;;
68523;SDS011;55524;51.380;13.372;2023-09-18T07:53:00;3.70;;;3.30;;
68523;SDS011;55524;51.380;13.372;2023-09-18T07:55:27;4.00;;;3.30;;
68523;SDS011;55524;51.380;13.372;2023-09-18T07:57:54;4.32;;;2.90;;
68523;SDS011;55524;51.380;13.372;2023-09-18T08:00:21;5.20;;;3.22;;
68523;SDS011;55524;51.380;13.372;2023-09-18T08:02:48;5.88;;;3.33;;
68523;SDS011;55524;51.380;13.372;2023-09-18T08:05:16;6.95;;;3.30;;
68523;SDS011;55524;51.380;13.372;2023-09-18T08:07:42;3.33;;;3.05;;
68523;SDS011;55524;51.380;13.372;2023-09-18T08:10:09;4.03;;;3.35;;
68523;SDS011;55524;51.380;13.372;2023-09-18T08:12:37;5.60;;;3.40;;
68523;SDS011;55524;51.380;13.372;2023-09-18T08:15:04;6.15;;;2.85;;
68523;SDS011;55524;51.380;13.372;2023-09-18T08:17:31;15.52;;;4.13;;
68523;SDS011;55524;51.380;13.372;2023-09-18T08:19:57;3.42;;;3.13;;
68523;SDS011;55524;51.380;13.372;2023-09-18T08:22:24;5.88;;;3.17;;
68523;SDS011;55524;51.380;13.372;2023-09-18T08:24:50;5.13;;;3.13;;
68523;SDS011;55524;51.380;13.372;2023-09-18T08:27:18;4.40;;;3.60;;
68523;SDS011;55524;51.380;13.372;2023-09-18T08:29:45;6.82;;;3.30;;
68523;SDS011;55524;51.380;13.372;2023-09-18T08:32:11;3.42;;;3.15;;
68523;SDS011;55524;51.380;13.372;2023-09-18T08:34:38;4.18;;;3.25;;
68523;SDS011;55524;51.380;13.372;2023-09-18T08:37:04;4.97;;;3.30;;
68523;SDS011;55524;51.380;13.372;2023-09-18T08:39:31;7.15;;;3.53;;
68523;SDS011;55524;51.380;13.372;2023-09-18T08:41:59;3.83;;;3.15;;
68523;SDS011;55524;51.380;13.372;2023-09-18T08:44:29;11.18;;;3.97;;
68523;SDS011;55524;51.380;13.372;2023-09-18T08:46:56;4.45;;;3.05;;
68523;SDS011;55524;51.380;13.372;2023-09-18T08:49:23;3.30;;;2.97;;
68523;SDS011;55524;51.380;13.372;2023-09-18T08:51:50;5.53;;;3.28;;
68523;SDS011;55524;51.380;13.372;2023-09-18T08:54:19;5.25;;;3.25;;
68523;SDS011;55524;51.380;13.372;2023-09-18T08:56:46;5.90;;;3.30;;
68523;SDS011;55524;51.380;13.372;2023-09-18T08:59:12;7.43;;;3.10;;
68523;SDS011;55524;51.380;13.372;2023-09-18T09:01:40;7.30;;;3.63;;
68523;SDS011;55524;51.380;13.372;2023-09-18T09:04:06;3.28;;;2.97;;
68523;SDS011;55524;51.380;13.372;2023-09-18T09:06:32;5.00;;;3.20;;
68523;SDS011;55524;51.380;13.372;2023-09-18T09:08:58;9.30;;;3.70;;
68523;SDS011;55524;51.380;13.372;2023-09-18T09:11:26;4.95;;;3.80;;
68523;SDS011;55524;51.380;13.372;2023-09-18T09:14:08;9.43;;;4.25;;
68523;SDS011;55524;51.380;13.372;2023-09-18T09:16:38;3.70;;;3.40;;
68523;SDS011;55524;51.380;13.372;2023-09-18T09:19:05;8.32;;;3.47;;
68523;SDS011;55524;51.380;13.372;2023-09-18T09:21:39;4.70;;;3.28;;
68523;SDS011;55524;51.380;13.372;2023-09-18T09:24:06;4.10;;;3.72;;
68523;SDS011;55524;51.380;13.372;2023-09-18T09:26:33;3.55;;;3.22;;
68523;SDS011;55524;51.380;13.372;2023-09-18T09:29:14;6.45;;;3.40;;
68523;SDS011;55524;51.380;13.372;2023-09-18T09:31:43;5.25;;;3.03;;
68523;SDS011;55524;51.380;13.372;2023-09-18T09:34:10;8.32;;;4.20;;
68523;SDS011;55524;51.380;13.372;2023-09-18T09:36:53;6.60;;;3.38;;
68523;SDS011;55524;51.380;13.372;2023-09-18T09:39:20;4.55;;;3.45;;
68523;SDS011;55524;51.380;13.372;2023-09-18T09:41:54;3.97;;;3.33;;
68523;SDS011;55524;51.380;13.372;2023-09-18T09:44:20;3.78;;;3.22;;
68523;SDS011;55524;51.380;13.372;2023-09-18T09:46:47;3.42;;;3.13;;
68523;SDS011;55524;51.380;13.372;2023-09-18T09:49:14;3.53;;;2.90;;
68523;SDS011;55524;51.380;13.372;2023-09-18T09:51:41;5.63;;;3.17;;
68523;SDS011;55524;51.380;13.372;2023-09-18T09:54:07;7.55;;;3.15;;
68523;SDS011;55524;51.380;13.372;2023-09-18T09:56:49;5.00;;;3.47;;
68523;SDS011;55524;51.380;13.372;2023-09-18T09:59:19;5.07;;;3.05;;
68523;SDS011;55524;51.380;13.372;2023-09-18T10:01:46;6.47;;;3.28;;
68523;SDS011;55524;51.380;13.372;2023-09-18T10:04:14;7.70;;;2.92;;
68523;SDS011;55524;51.380;13.372;2023-09-18T10:06:43;8.18;;;3.00;;
68523;SDS011;55524;51.380;13.372;2023-09-18T10:09:13;5.63;;;3.10;;
68523;SDS011;55524;51.380;13.372;2023-09-18T10:11:41;7.18;;;2.65;;
68523;SDS011;55524;51.380;13.372;2023-09-18T10:14:22;5.35;;;3.00;;
68523;SDS011;55524;51.380;13.372;2023-09-18T10:16:59;3.50;;;2.55;;
68523;SDS011;55524;51.380;13.372;2023-09-18T10:22:30;2.80;;;2.60;;
68523;SDS011;55524;51.380;13.372;2023-09-18T10:25:13;3.50;;;3.20;;
68523;SDS011;55524;51.380;13.372;2023-09-18T10:27:44;6.43;;;3.03;;
68523;SDS011;55524;51.380;13.372;2023-09-18T10:30:14;3.10;;;2.80;;
68523;SDS011;55524;51.380;13.372;2023-09-18T10:32:44;5.45;;;3.13;;
68523;SDS011;55524;51.380;13.372;2023-09-18T10:35:11;3.53;;;3.03;;
68523;SDS011;55524;51.380;13.372;2023-09-18T10:37:38;4.50;;;3.45;;
68523;SDS011;55524;51.380;13.372;2023-09-18T10:40:07;3.28;;;2.95;;
68523;SDS011;55524;51.380;13.372;2023-09-18T10:42:34;4.18;;;2.88;;
68523;SDS011;55524;51.380;13.372;2023-09-18T10:45:09;6.15;;;3.17;;
68523;SDS011;55524;51.380;13.372;2023-09-18T10:47:37;15.40;;;3.90;;
68523;SDS011;55524;51.380;13.372;2023-09-18T10:50:06;173.23;;;8.00;;
68523;SDS011;55524;51.380;13.372;2023-09-18T10:52:34;22.23;;;3.90;;
68523;SDS011;55524;51.380;13.372;2023-09-18T10:55:09;13.85;;;3.33;;
68523;SDS011;55524;51.380;13.372;2023-09-18T10:57:48;97.60;;;6.45;;
68523;SDS011;55524;51.380;13.372;2023-09-18T11:00:21;4.65;;;3.00;;
68523;SDS011;55524;51.380;13.372;2023-09-18T11:02:53;20.13;;;4.60;;
68523;SDS011;55524;51.380;13.372;2023-09-18T11:05:35;6.00;;;3.03;;
68523;SDS011;55524;51.380;13.372;2023-09-18T11:13:38;22.85;;;3.72;;
68523;SDS011;55524;51.380;13.372;2023-09-18T11:16:16;33.45;;;3.58;;
68523;SDS011;55524;51.380;13.372;2023-09-18T11:21:25;31.83;;;3.35;;
68523;SDS011;55524;51.380;13.372;2023-09-18T11:26:30;13.05;;;3.22;;
68523;SDS011;55524;51.380;13.372;2023-09-18T11:29:01;6.68;;;2.97;;
68523;SDS011;55524;51.380;13.372;2023-09-18T11:31:41;11.43;;;3.95;;
68523;SDS011;55524;51.380;13.372;2023-09-18T11:34:22;3.53;;;2.47;;
68523;SDS011;55524;51.380;13.372;2023-09-18T11:37:20;2.30;;;2.10;;
68523;SDS011;55524;51.380;13.372;2023-09-18T11:39:47;3.60;;;2.20;;
68523;SDS011;55524;51.380;13.372;2023-09-18T11:42:18;2.05;;;1.70;;
68523;SDS011;55524;51.380;13.372;2023-09-18T11:44:52;3.50;;;1.90;;
68523;SDS011;55524;51.380;13.372;2023-09-18T11:47:23;2.88;;;1.70;;
68523;SDS011;55524;51.380;13.372;2023-09-18T11:49:51;7.55;;;1.88;;
68523;SDS011;55524;51.380;13.372;2023-09-18T11:52:25;8.63;;;1.70;;
68523;SDS011;55524;51.380;13.372;2023-09-18T11:54:58;14.50;;;1.88;;
68523;SDS011;55524;51.380;13.372;2023-09-18T11:57:26;10.10;;;2.17;;
68523;SDS011;55524;51.380;13.372;2023-09-18T11:59:53;8.63;;;1.90;;
68523;SDS011;55524;51.380;13.372;2023-09-18T12:02:30;4.88;;;1.88;;
68523;SDS011;55524;51.380;13.372;2023-09-18T12:05:15;6.25;;;2.10;;
68523;SDS011;55524;51.380;13.372;2023-09-18T12:07:43;6.88;;;2.08;;
68523;SDS011;55524;51.380;13.372;2023-09-18T12:10:14;9.73;;;1.80;;
68523;SDS011;55524;51.380;13.372;2023-09-18T12:12:42;7.80;;;1.70;;
68523;SDS011;55524;51.380;13.372;2023-09-18T12:15:18;6.20;;;1.70;;
68523;SDS011;55524;51.380;13.372;2023-09-18T12:17:45;8.30;;;2.60;;
68523;SDS011;55524;51.380;13.372;2023-09-18T12:20:14;5.95;;;1.75;;
68523;SDS011;55524;51.380;13.372;2023-09-18T12:22:48;11.82;;;3.05;;
68523;SDS011;55524;51.380;13.372;2023-09-18T12:25:18;13.30;;;2.33;;
68523;SDS011;55524;51.380;13.372;2023-09-18T12:27:45;11.73;;;2.03;;
68523;SDS011;55524;51.380;13.372;2023-09-18T12:30:16;3.50;;;2.00;;
68523;SDS011;55524;51.380;13.372;2023-09-18T12:32:46;6.13;;;1.98;;
68523;SDS011;55524;51.380;13.372;2023-09-18T12:35:15;7.20;;;1.90;;
68523;SDS011;55524;51.380;13.372;2023-09-18T12:37:43;4.75;;;2.13;;
68523;SDS011;55524;51.380;13.372;2023-09-18T12:40:30;9.40;;;1.90;;
68523;SDS011;55524;51.380;13.372;2023-09-18T12:42:59;6.57;;;1.85;;
68523;SDS011;55524;51.380;13.372;2023-09-18T12:45:26;10.27;;;2.10;;
68523;SDS011;55524;51.380;13.372;2023-09-18T12:47:54;10.07;;;2.10;;
68523;SDS011;55524;51.380;13.372;2023-09-18T12:50:22;4.75;;;1.95;;
68523;SDS011;55524;51.380;13.372;2023-09-18T12:52:49;8.32;;;1.95;;
68523;SDS011;55524;51.380;13.372;2023-09-18T12:55:22;8.35;;;1.80;;
68523;SDS011;55524;51.380;13.372;2023-09-18T12:57:49;6.00;;;1.80;;
68523;SDS011;55524;51.380;13.372;2023-09-18T13:00:18;6.03;;;1.75;;
68523;SDS011;55524;51.380;13.372;2023-09-18T13:02:48;6.25;;;2.22;;
68523;SDS011;55524;51.380;13.372;2023-09-18T13:05:20;4.90;;;1.92;;
68523;SDS011;55524;51.380;13.372;2023-09-18T13:07:51;6.18;;;2.03;;
68523;SDS011;55524;51.380;13.372;2023-09-18T13:10:18;9.07;;;2.22;;
68523;SDS011;55524;51.380;13.372;2023-09-18T13:12:49;4.15;;;1.70;;
68523;SDS011;55524;51.380;13.372;2023-09-18T13:15:30;9.88;;;2.40;;
68523;SDS011;55524;51.380;13.372;2023-09-18T13:17:58;5.32;;;2.10;;
68523;SDS011;55524;51.380;13.372;2023-09-18T13:20:34;23.92;;;2.60;;
68523;SDS011;55524;51.380;13.372;2023-09-18T13:23:01;10.02;;;2.00;;
68523;SDS011;55524;51.380;13.372;2023-09-18T13:27:57;5.72;;;1.85;;
68523;SDS011;55524;51.380;13.372;2023-09-18T13:30:23;7.10;;;2.20;;
68523;SDS011;55524;51.380;13.372;2023-09-18T13:32:49;8.10;;;2.80;;
68523;SDS011;55524;51.380;13.372;2023-09-18T13:35:17;4.88;;;1.70;;
68523;SDS011;55524;51.380;13.372;2023-09-18T13:37:44;7.13;;;1.83;;
68523;SDS011;55524;51.380;13.372;2023-09-18T13:40:11;11.60;;;2.20;;
68523;SDS011;55524;51.380;13.372;2023-09-18T13:42:37;2.67;;;1.67;;
68523;SDS011;55524;51.380;13.372;2023-09-18T13:45:04;4.40;;;2.10;;
68523;SDS011;55524;51.380;13.372;2023-09-18T13:47:32;9.75;;;2.08;;
68523;SDS011;55524;51.380;13.372;2023-09-18T13:49:59;4.85;;;1.80;;
68523;SDS011;55524;51.380;13.372;2023-09-18T13:52:28;7.00;;;2.10;;
68523;SDS011;55524;51.380;13.372;2023-09-18T13:54:55;7.00;;;1.92;;
68523;SDS011;55524;51.380;13.372;2023-09-18T13:57:21;5.63;;;2.00;;
68523;SDS011;55524;51.380;13.372;2023-09-18T13:59:49;7.63;;;2.10;;
68523;SDS011;55524;51.380;13.372;2023-09-18T14:02:17;4.10;;;1.95;;
68523;SDS011;55524;51.380;13.372;2023-09-18T14:04:44;7.90;;;2.42;;
68523;SDS011;55524;51.380;13.372;2023-09-18T14:07:11;5.57;;;1.90;;
68523;SDS011;55524;51.380;13.372;2023-09-18T14:09:38;9.30;;;2.00;;
68523;SDS011;55524;51.380;13.372;2023-09-18T14:12:05;8.13;;;2.25;;
68523;SDS011;55524;51.380;13.372;2023-09-18T14:14:32;8.63;;;1.92;;
68523;SDS011;55524;51.380;13.372;2023-09-18T14:16:59;4.95;;;1.70;;
68523;SDS011;55524;51.380;13.372;2023-09-18T14:19:25;18.88;;;3.67;;
68523;SDS011;55524;51.380;13.372;2023-09-18T14:21:51;11.00;;;2.13;;
68523;SDS011;55524;51.380;13.372;2023-09-18T14:24:18;5.28;;;1.75;;
68523;SDS011;55524;51.380;13.372;2023-09-18T14:26:47;4.90;;;1.67;;
68523;SDS011;55524;51.380;13.372;2023-09-18T14:29:14;4.30;;;1.77;;
68523;SDS011;55524;51.380;13.372;2023-09-18T14:31:40;13.23;;;2.15;;
68523;SDS011;55524;51.380;13.372;2023-09-18T14:34:07;16.30;;;2.83;;
68523;SDS011;55524;51.380;13.372;2023-09-18T14:36:34;4.82;;;1.65;;
68523;SDS011;55524;51.380;13.372;2023-09-18T14:39:01;4.13;;;1.63;;
68523;SDS011;55524;51.380;13.372;2023-09-18T14:41:28;6.45;;;1.80;;
68523;SDS011;55524;51.380;13.372;2023-09-18T14:43:55;7.07;;;2.08;;
68523;SDS011;55524;51.380;13.372;2023-09-18T14:46:24;13.05;;;1.92;;
68523;SDS011;55524;51.380;13.372;2023-09-18T14:48:50;6.65;;;1.70;;
68523;SDS011;55524;51.380;13.372;2023-09-18T14:51:16;4.15;;;1.73;;
68523;SDS011;55524;51.380;13.372;2023-09-18T14:53:43;7.80;;;1.98;;
68523;SDS011;55524;51.380;13.372;2023-09-18T14:56:09;7.00;;;1.90;;